sensor_id;sensor_type;location;lat;lon;timestamp;P1;durP1;ratioP1;P2;durP2;ratioP2
16957;SDS011;8595;52.542;11.974;2023-05-10T00:01:00;10.05;;;5.80;;
16957;SDS011;8595;52.542;11.974;2023-05-10T00:03:27;8.73;;;5.68;;
16957;SDS011;8595;52.542;11.974;2023-05-10T00:05:54;9.63;;;5.80;;
16957;SDS011;8595;52.542;11.974;2023-05-10T00:08:22;9.38;;;5.60;;
16957;SDS011;8595;52.542;11.974;2023-05-10T00:10:49;7.22;;;5.90;;
16957;SDS011;8595;52.542;11.974;2023-05-10T00:13:15;8.25;;;6.20;;
16957;SDS011;8595;52.542;11.974;2023-05-10T00:15:42;9.68;;;6.47;;
16957;SDS011;8595;52.542;11.974;2023-05-10T00:18:09;6.75;;;5.57;;
16957;SDS011;8595;52.542;11.974;2023-05-10T00:20:36;10.65;;;5.57;;
16957;SDS011;8595;52.542;11.974;2023-05-10T00:23:02;7.25;;;5.95;;
16957;SDS011;8595;52.542;11.974;2023-05-10T00:25:31;8.63;;;5.80;;
16957;SDS011;8595;52.542;11.974;2023-05-10T00:27:58;12.20;;;6.57;;
16957;SDS011;8595;52.542;11.974;2023-05-10T00:30:26;6.45;;;5.85;;
16957;SDS011;8595;52.542;11.974;2023-05-10T00:32:53;6.68;;;5.97;;
16957;SDS011;8595;52.542;11.974;2023-05-10T00:35:20;6.40;;;5.72;;
16957;SDS011;8595;52.542;11.974;2023-05-10T00:37:47;9.02;;;6.20;;
16957;SDS011;8595;52.542;11.974;2023-05-10T00:40:14;7.43;;;6.07;;
16957;SDS011;8595;52.542;11.974;2023-05-10T00:42:42;7.15;;;5.70;;
16957;SDS011;8595;52.542;11.974;2023-05-10T00:45:09;8.25;;;6.13;;
16957;SDS011;8595;52.542;11.974;2023-05-10T00:47:36;7.43;;;5.75;;
16957;SDS011;8595;52.542;11.974;2023-05-10T00:50:04;7.88;;;5.55;;
16957;SDS011;8595;52.542;11.974;2023-05-10T00:52:31;7.88;;;5.43;;
16957;SDS011;8595;52.542;11.974;2023-05-10T00:54:58;7.72;;;6.53;;
16957;SDS011;8595;52.542;11.974;2023-05-10T00:57:26;8.07;;;6.15;;
16957;SDS011;8595;52.542;11.974;2023-05-10T00:59:54;11.02;;;6.38;;
16957;SDS011;8595;52.542;11.974;2023-05-10T01:02:21;7.43;;;5.95;;
16957;SDS011;8595;52.542;11.974;2023-05-10T01:04:48;6.78;;;6.07;;
16957;SDS011;8595;52.542;11.974;2023-05-10T01:07:15;9.85;;;6.35;;
16957;SDS011;8595;52.542;11.974;2023-05-10T01:09:42;6.95;;;6.15;;
16957;SDS011;8595;52.542;11.974;2023-05-10T01:12:09;9.07;;;6.68;;
16957;SDS011;8595;52.542;11.974;2023-05-10T01:14:35;7.03;;;6.00;;
16957;SDS011;8595;52.542;11.974;2023-05-10T01:17:04;6.75;;;5.70;;
16957;SDS011;8595;52.542;11.974;2023-05-10T01:19:32;9.65;;;6.40;;
16957;SDS011;8595;52.542;11.974;2023-05-10T01:22:04;8.02;;;6.03;;
16957;SDS011;8595;52.542;11.974;2023-05-10T01:24:57;6.85;;;5.82;;
16957;SDS011;8595;52.542;11.974;2023-05-10T01:27:51;9.10;;;6.50;;
16957;SDS011;8595;52.542;11.974;2023-05-10T01:33:36;8.57;;;6.10;;
16957;SDS011;8595;52.542;11.974;2023-05-10T01:36:08;9.05;;;6.20;;
16957;SDS011;8595;52.542;11.974;2023-05-10T01:38:42;7.50;;;6.00;;
16957;SDS011;8595;52.542;11.974;2023-05-10T01:41:16;11.23;;;6.57;;
16957;SDS011;8595;52.542;11.974;2023-05-10T01:43:48;9.88;;;6.10;;
16957;SDS011;8595;52.542;11.974;2023-05-10T01:46:22;7.55;;;6.25;;
16957;SDS011;8595;52.542;11.974;2023-05-10T01:48:56;8.48;;;6.15;;
16957;SDS011;8595;52.542;11.974;2023-05-10T01:51:25;13.52;;;6.22;;
16957;SDS011;8595;52.542;11.974;2023-05-10T01:53:59;7.47;;;5.93;;
16957;SDS011;8595;52.542;11.974;2023-05-10T01:56:29;9.05;;;6.82;;
16957;SDS011;8595;52.542;11.974;2023-05-10T01:58:57;8.38;;;6.57;;
16957;SDS011;8595;52.542;11.974;2023-05-10T02:01:26;8.52;;;6.18;;
16957;SDS011;8595;52.542;11.974;2023-05-10T02:03:53;6.60;;;5.90;;
16957;SDS011;8595;52.542;11.974;2023-05-10T02:06:23;7.82;;;6.03;;
16957;SDS011;8595;52.542;11.974;2023-05-10T02:08:51;7.10;;;6.40;;
16957;SDS011;8595;52.542;11.974;2023-05-10T02:11:19;7.35;;;6.57;;
16957;SDS011;8595;52.542;11.974;2023-05-10T02:13:47;7.10;;;6.40;;
16957;SDS011;8595;52.542;11.974;2023-05-10T02:16:15;9.52;;;6.43;;
16957;SDS011;8595;52.542;11.974;2023-05-10T02:18:44;8.15;;;6.47;;
16957;SDS011;8595;52.542;11.974;2023-05-10T02:21:13;10.35;;;6.78;;
16957;SDS011;8595;52.542;11.974;2023-05-10T02:23:43;7.88;;;6.43;;
16957;SDS011;8595;52.542;11.974;2023-05-10T02:26:11;11.27;;;7.25;;
16957;SDS011;8595;52.542;11.974;2023-05-10T02:28:38;7.63;;;6.88;;
16957;SDS011;8595;52.542;11.974;2023-05-10T02:31:06;7.60;;;6.68;;
16957;SDS011;8595;52.542;11.974;2023-05-10T02:33:34;7.32;;;6.50;;
16957;SDS011;8595;52.542;11.974;2023-05-10T02:36:03;9.85;;;6.80;;
16957;SDS011;8595;52.542;11.974;2023-05-10T02:38:33;8.23;;;7.00;;
16957;SDS011;8595;52.542;11.974;2023-05-10T02:41:01;7.32;;;6.55;;
16957;SDS011;8595;52.542;11.974;2023-05-10T02:43:30;6.65;;;5.95;;
16957;SDS011;8595;52.542;11.974;2023-05-10T02:45:59;6.97;;;6.18;;
16957;SDS011;8595;52.542;11.974;2023-05-10T02:48:27;10.63;;;7.07;;
16957;SDS011;8595;52.542;11.974;2023-05-10T02:50:54;8.13;;;6.72;;
16957;SDS011;8595;52.542;11.974;2023-05-10T02:53:29;9.27;;;6.97;;
16957;SDS011;8595;52.542;11.974;2023-05-10T02:55:59;9.80;;;7.47;;
16957;SDS011;8595;52.542;11.974;2023-05-10T02:58:32;8.48;;;6.45;;
16957;SDS011;8595;52.542;11.974;2023-05-10T03:00:59;7.75;;;6.35;;
16957;SDS011;8595;52.542;11.974;2023-05-10T03:03:26;8.65;;;6.68;;
16957;SDS011;8595;52.542;11.974;2023-05-10T03:05:53;9.48;;;7.05;;
16957;SDS011;8595;52.542;11.974;2023-05-10T03:08:21;10.45;;;6.88;;
16957;SDS011;8595;52.542;11.974;2023-05-10T03:10:51;8.15;;;7.20;;
16957;SDS011;8595;52.542;11.974;2023-05-10T03:13:28;8.40;;;6.32;;
16957;SDS011;8595;52.542;11.974;2023-05-10T03:16:03;6.70;;;5.75;;
16957;SDS011;8595;52.542;11.974;2023-05-10T03:18:37;10.20;;;7.55;;
16957;SDS011;8595;52.542;11.974;2023-05-10T03:21:10;8.25;;;7.38;;
16957;SDS011;8595;52.542;11.974;2023-05-10T03:23:41;10.38;;;8.00;;
16957;SDS011;8595;52.542;11.974;2023-05-10T03:26:10;10.02;;;7.28;;
16957;SDS011;8595;52.542;11.974;2023-05-10T03:28:46;11.70;;;7.45;;
16957;SDS011;8595;52.542;11.974;2023-05-10T03:31:14;8.77;;;7.30;;
16957;SDS011;8595;52.542;11.974;2023-05-10T03:33:45;8.55;;;7.05;;
16957;SDS011;8595;52.542;11.974;2023-05-10T03:36:13;9.43;;;7.60;;
16957;SDS011;8595;52.542;11.974;2023-05-10T03:38:40;8.15;;;6.95;;
16957;SDS011;8595;52.542;11.974;2023-05-10T03:41:06;10.68;;;7.10;;
16957;SDS011;8595;52.542;11.974;2023-05-10T03:43:33;7.32;;;5.80;;
16957;SDS011;8595;52.542;11.974;2023-05-10T03:46:02;10.48;;;7.55;;
16957;SDS011;8595;52.542;11.974;2023-05-10T03:48:29;9.80;;;6.75;;
16957;SDS011;8595;52.542;11.974;2023-05-10T03:50:56;9.10;;;7.03;;
16957;SDS011;8595;52.542;11.974;2023-05-10T03:53:23;7.82;;;6.55;;
16957;SDS011;8595;52.542;11.974;2023-05-10T03:55:50;7.80;;;6.60;;
16957;SDS011;8595;52.542;11.974;2023-05-10T03:58:17;9.95;;;6.65;;
16957;SDS011;8595;52.542;11.974;2023-05-10T04:00:44;10.50;;;7.03;;
16957;SDS011;8595;52.542;11.974;2023-05-10T04:03:12;8.20;;;6.93;;
16957;SDS011;8595;52.542;11.974;2023-05-10T04:05:39;7.90;;;6.75;;
16957;SDS011;8595;52.542;11.974;2023-05-10T04:08:06;8.02;;;6.40;;
16957;SDS011;8595;52.542;11.974;2023-05-10T04:10:33;9.07;;;7.20;;
16957;SDS011;8595;52.542;11.974;2023-05-10T04:12:59;7.53;;;6.63;;
16957;SDS011;8595;52.542;11.974;2023-05-10T04:15:26;7.70;;;6.70;;
16957;SDS011;8595;52.542;11.974;2023-05-10T04:17:53;9.02;;;6.57;;
16957;SDS011;8595;52.542;11.974;2023-05-10T04:20:21;8.77;;;6.72;;
16957;SDS011;8595;52.542;11.974;2023-05-10T04:22:48;9.40;;;6.40;;
16957;SDS011;8595;52.542;11.974;2023-05-10T04:25:15;7.95;;;6.60;;
16957;SDS011;8595;52.542;11.974;2023-05-10T04:27:42;7.88;;;7.03;;
16957;SDS011;8595;52.542;11.974;2023-05-10T04:30:09;9.88;;;5.80;;
16957;SDS011;8595;52.542;11.974;2023-05-10T04:32:37;9.73;;;6.68;;
16957;SDS011;8595;52.542;11.974;2023-05-10T04:35:04;9.68;;;6.55;;
16957;SDS011;8595;52.542;11.974;2023-05-10T04:37:33;7.35;;;6.20;;
16957;SDS011;8595;52.542;11.974;2023-05-10T04:39:59;10.10;;;5.80;;
16957;SDS011;8595;52.542;11.974;2023-05-10T04:42:27;7.45;;;6.53;;
16957;SDS011;8595;52.542;11.974;2023-05-10T04:44:53;6.88;;;6.00;;
16957;SDS011;8595;52.542;11.974;2023-05-10T04:47:20;9.50;;;6.28;;
16957;SDS011;8595;52.542;11.974;2023-05-10T04:49:47;9.45;;;5.78;;
16957;SDS011;8595;52.542;11.974;2023-05-10T04:52:13;10.25;;;6.68;;
16957;SDS011;8595;52.542;11.974;2023-05-10T04:54:43;10.13;;;6.50;;
16957;SDS011;8595;52.542;11.974;2023-05-10T04:57:10;6.85;;;5.88;;
16957;SDS011;8595;52.542;11.974;2023-05-10T04:59:37;7.90;;;6.10;;
16957;SDS011;8595;52.542;11.974;2023-05-10T05:02:04;8.15;;;6.45;;
16957;SDS011;8595;52.542;11.974;2023-05-10T05:04:31;10.02;;;6.28;;
16957;SDS011;8595;52.542;11.974;2023-05-10T05:06:58;6.10;;;5.50;;
16957;SDS011;8595;52.542;11.974;2023-05-10T05:09:25;7.10;;;6.20;;
16957;SDS011;8595;52.542;11.974;2023-05-10T05:11:53;7.32;;;5.95;;
16957;SDS011;8595;52.542;11.974;2023-05-10T05:14:20;7.38;;;6.10;;
16957;SDS011;8595;52.542;11.974;2023-05-10T05:16:47;7.97;;;5.80;;
16957;SDS011;8595;52.542;11.974;2023-05-10T05:19:14;7.40;;;5.53;;
16957;SDS011;8595;52.542;11.974;2023-05-10T05:21:41;7.25;;;6.20;;
16957;SDS011;8595;52.542;11.974;2023-05-10T05:24:08;6.53;;;5.30;;
16957;SDS011;8595;52.542;11.974;2023-05-10T05:26:36;6.78;;;5.18;;
16957;SDS011;8595;52.542;11.974;2023-05-10T05:29:04;6.43;;;5.35;;
16957;SDS011;8595;52.542;11.974;2023-05-10T05:31:31;6.75;;;5.35;;
16957;SDS011;8595;52.542;11.974;2023-05-10T05:33:57;6.00;;;5.35;;
16957;SDS011;8595;52.542;11.974;2023-05-10T05:36:24;7.65;;;5.68;;
16957;SDS011;8595;52.542;11.974;2023-05-10T05:38:51;6.15;;;5.32;;
16957;SDS011;8595;52.542;11.974;2023-05-10T05:41:17;5.63;;;5.03;;
16957;SDS011;8595;52.542;11.974;2023-05-10T05:43:44;7.13;;;5.82;;
16957;SDS011;8595;52.542;11.974;2023-05-10T05:46:12;9.20;;;5.45;;
16957;SDS011;8595;52.542;11.974;2023-05-10T05:48:39;6.65;;;5.35;;
16957;SDS011;8595;52.542;11.974;2023-05-10T05:51:06;9.27;;;4.97;;
16957;SDS011;8595;52.542;11.974;2023-05-10T05:53:33;8.85;;;5.40;;
16957;SDS011;8595;52.542;11.974;2023-05-10T05:55:59;11.68;;;5.93;;
16957;SDS011;8595;52.542;11.974;2023-05-10T05:58:26;7.30;;;5.57;;
16957;SDS011;8595;52.542;11.974;2023-05-10T06:00:53;5.63;;;5.13;;
16957;SDS011;8595;52.542;11.974;2023-05-10T06:03:21;7.68;;;5.78;;
16957;SDS011;8595;52.542;11.974;2023-05-10T06:05:48;11.35;;;5.35;;
16957;SDS011;8595;52.542;11.974;2023-05-10T06:08:15;9.85;;;5.40;;
16957;SDS011;8595;52.542;11.974;2023-05-10T06:10:42;6.15;;;5.20;;
16957;SDS011;8595;52.542;11.974;2023-05-10T06:13:09;10.07;;;5.90;;
16957;SDS011;8595;52.542;11.974;2023-05-10T06:15:36;5.88;;;4.72;;
16957;SDS011;8595;52.542;11.974;2023-05-10T06:18:03;5.22;;;4.72;;
16957;SDS011;8595;52.542;11.974;2023-05-10T06:20:32;7.78;;;5.18;;
16957;SDS011;8595;52.542;11.974;2023-05-10T06:23:00;6.13;;;5.20;;
16957;SDS011;8595;52.542;11.974;2023-05-10T06:25:27;5.63;;;4.72;;
16957;SDS011;8595;52.542;11.974;2023-05-10T06:27:54;7.07;;;5.05;;
16957;SDS011;8595;52.542;11.974;2023-05-10T06:30:23;5.50;;;5.00;;
16957;SDS011;8595;52.542;11.974;2023-05-10T06:32:53;9.43;;;5.20;;
16957;SDS011;8595;52.542;11.974;2023-05-10T06:35:20;7.78;;;4.90;;
16957;SDS011;8595;52.542;11.974;2023-05-10T06:37:48;9.88;;;5.28;;
16957;SDS011;8595;52.542;11.974;2023-05-10T06:40:15;6.47;;;4.38;;
16957;SDS011;8595;52.542;11.974;2023-05-10T06:42:43;5.85;;;4.90;;
16957;SDS011;8595;52.542;11.974;2023-05-10T06:45:11;6.45;;;4.85;;
16957;SDS011;8595;52.542;11.974;2023-05-10T06:47:38;8.05;;;4.85;;
16957;SDS011;8595;52.542;11.974;2023-05-10T06:50:05;7.35;;;5.00;;
16957;SDS011;8595;52.542;11.974;2023-05-10T06:52:32;6.15;;;5.18;;
16957;SDS011;8595;52.542;11.974;2023-05-10T06:55:00;5.22;;;4.72;;
16957;SDS011;8595;52.542;11.974;2023-05-10T06:57:28;6.25;;;4.88;;
16957;SDS011;8595;52.542;11.974;2023-05-10T06:59:55;9.32;;;4.82;;
16957;SDS011;8595;52.542;11.974;2023-05-10T07:02:22;6.50;;;4.93;;
16957;SDS011;8595;52.542;11.974;2023-05-10T07:04:49;6.53;;;5.18;;
16957;SDS011;8595;52.542;11.974;2023-05-10T07:07:16;5.80;;;5.20;;
16957;SDS011;8595;52.542;11.974;2023-05-10T07:09:43;5.38;;;4.40;;
16957;SDS011;8595;52.542;11.974;2023-05-10T07:12:13;8.73;;;5.10;;
16957;SDS011;8595;52.542;11.974;2023-05-10T07:14:40;5.13;;;4.47;;
16957;SDS011;8595;52.542;11.974;2023-05-10T07:17:06;6.53;;;4.68;;
16957;SDS011;8595;52.542;11.974;2023-05-10T07:19:33;5.47;;;4.97;;
16957;SDS011;8595;52.542;11.974;2023-05-10T07:22:00;4.80;;;4.40;;
16957;SDS011;8595;52.542;11.974;2023-05-10T07:24:27;5.13;;;4.63;;
16957;SDS011;8595;52.542;11.974;2023-05-10T07:26:55;5.18;;;4.57;;
16957;SDS011;8595;52.542;11.974;2023-05-10T07:29:23;5.88;;;5.35;;
16957;SDS011;8595;52.542;11.974;2023-05-10T07:31:49;6.68;;;4.82;;
16957;SDS011;8595;52.542;11.974;2023-05-10T07:34:16;5.00;;;4.47;;
16957;SDS011;8595;52.542;11.974;2023-05-10T07:36:43;5.85;;;4.45;;
16957;SDS011;8595;52.542;11.974;2023-05-10T07:39:10;9.82;;;4.57;;
16957;SDS011;8595;52.542;11.974;2023-05-10T07:41:36;5.38;;;4.80;;
16957;SDS011;8595;52.542;11.974;2023-05-10T07:44:04;7.05;;;4.05;;
16957;SDS011;8595;52.542;11.974;2023-05-10T07:46:33;10.70;;;4.90;;
16957;SDS011;8595;52.542;11.974;2023-05-10T07:49:00;6.18;;;4.05;;
16957;SDS011;8595;52.542;11.974;2023-05-10T07:51:27;5.28;;;4.78;;
16957;SDS011;8595;52.542;11.974;2023-05-10T07:53:54;5.25;;;4.55;;
16957;SDS011;8595;52.542;11.974;2023-05-10T07:56:23;8.90;;;4.22;;
16957;SDS011;8595;52.542;11.974;2023-05-10T07:58:52;8.07;;;4.68;;
16957;SDS011;8595;52.542;11.974;2023-05-10T08:01:19;4.60;;;4.20;;
16957;SDS011;8595;52.542;11.974;2023-05-10T08:03:47;6.63;;;4.63;;
16957;SDS011;8595;52.542;11.974;2023-05-10T08:06:16;7.35;;;4.75;;
16957;SDS011;8595;52.542;11.974;2023-05-10T08:08:43;5.20;;;3.97;;
16957;SDS011;8595;52.542;11.974;2023-05-10T08:11:14;4.50;;;4.10;;
16957;SDS011;8595;52.542;11.974;2023-05-10T08:13:41;5.97;;;4.78;;
16957;SDS011;8595;52.542;11.974;2023-05-10T08:16:08;6.40;;;4.60;;
16957;SDS011;8595;52.542;11.974;2023-05-10T08:18:36;6.25;;;3.88;;
16957;SDS011;8595;52.542;11.974;2023-05-10T08:21:04;7.78;;;4.57;;
16957;SDS011;8595;52.542;11.974;2023-05-10T08:23:32;8.77;;;5.20;;
16957;SDS011;8595;52.542;11.974;2023-05-10T08:25:59;12.05;;;6.10;;
16957;SDS011;8595;52.542;11.974;2023-05-10T08:28:26;10.68;;;4.75;;
16957;SDS011;8595;52.542;11.974;2023-05-10T08:30:53;5.35;;;4.65;;
16957;SDS011;8595;52.542;11.974;2023-05-10T08:33:20;5.78;;;4.88;;
16957;SDS011;8595;52.542;11.974;2023-05-10T08:35:46;8.27;;;5.38;;
16957;SDS011;8595;52.542;11.974;2023-05-10T08:38:14;5.60;;;4.43;;
16957;SDS011;8595;52.542;11.974;2023-05-10T08:40:42;5.80;;;3.88;;
16957;SDS011;8595;52.542;11.974;2023-05-10T08:43:11;4.53;;;3.70;;
16957;SDS011;8595;52.542;11.974;2023-05-10T08:45:40;5.47;;;3.92;;
16957;SDS011;8595;52.542;11.974;2023-05-10T08:48:10;6.18;;;4.60;;
16957;SDS011;8595;52.542;11.974;2023-05-10T08:50:38;9.30;;;3.92;;
16957;SDS011;8595;52.542;11.974;2023-05-10T08:53:09;13.13;;;4.03;;
16957;SDS011;8595;52.542;11.974;2023-05-10T08:55:39;6.50;;;3.83;;
16957;SDS011;8595;52.542;11.974;2023-05-10T08:58:07;4.75;;;4.22;;
16957;SDS011;8595;52.542;11.974;2023-05-10T09:00:35;6.95;;;4.22;;
16957;SDS011;8595;52.542;11.974;2023-05-10T09:03:03;8.00;;;4.18;;
16957;SDS011;8595;52.542;11.974;2023-05-10T09:05:30;8.00;;;3.85;;
16957;SDS011;8595;52.542;11.974;2023-05-10T09:07:57;4.97;;;4.07;;
16957;SDS011;8595;52.542;11.974;2023-05-10T09:10:25;6.63;;;4.10;;
16957;SDS011;8595;52.542;11.974;2023-05-10T09:12:55;4.70;;;4.30;;
16957;SDS011;8595;52.542;11.974;2023-05-10T09:15:22;7.35;;;4.80;;
16957;SDS011;8595;52.542;11.974;2023-05-10T09:17:49;6.75;;;4.25;;
16957;SDS011;8595;52.542;11.974;2023-05-10T09:20:16;4.45;;;4.05;;
16957;SDS011;8595;52.542;11.974;2023-05-10T09:22:43;10.30;;;4.95;;
16957;SDS011;8595;52.542;11.974;2023-05-10T09:25:11;7.47;;;5.00;;
16957;SDS011;8595;52.542;11.974;2023-05-10T09:27:38;5.00;;;4.25;;
16957;SDS011;8595;52.542;11.974;2023-05-10T09:30:08;6.95;;;4.90;;
16957;SDS011;8595;52.542;11.974;2023-05-10T09:32:35;4.80;;;4.40;;
16957;SDS011;8595;52.542;11.974;2023-05-10T09:35:09;5.93;;;5.20;;
16957;SDS011;8595;52.542;11.974;2023-05-10T09:37:38;5.45;;;4.90;;
16957;SDS011;8595;52.542;11.974;2023-05-10T09:40:07;6.38;;;5.10;;
16957;SDS011;8595;52.542;11.974;2023-05-10T09:42:37;5.03;;;4.32;;
16957;SDS011;8595;52.542;11.974;2023-05-10T09:45:05;9.68;;;5.13;;
16957;SDS011;8595;52.542;11.974;2023-05-10T09:47:34;15.68;;;5.65;;
16957;SDS011;8595;52.542;11.974;2023-05-10T09:50:01;8.00;;;6.13;;
16957;SDS011;8595;52.542;11.974;2023-05-10T09:52:29;7.32;;;5.30;;
16957;SDS011;8595;52.542;11.974;2023-05-10T09:54:57;5.53;;;5.00;;
16957;SDS011;8595;52.542;11.974;2023-05-10T09:57:24;7.55;;;5.65;;
16957;SDS011;8595;52.542;11.974;2023-05-10T09:59:51;6.05;;;5.45;;
16957;SDS011;8595;52.542;11.974;2023-05-10T10:02:19;7.03;;;5.30;;
16957;SDS011;8595;52.542;11.974;2023-05-10T10:04:50;8.18;;;6.18;;
16957;SDS011;8595;52.542;11.974;2023-05-10T10:07:17;6.15;;;5.55;;
16957;SDS011;8595;52.542;11.974;2023-05-10T10:09:49;9.90;;;6.07;;
16957;SDS011;8595;52.542;11.974;2023-05-10T10:12:16;6.85;;;6.10;;
16957;SDS011;8595;52.542;11.974;2023-05-10T10:14:45;5.88;;;5.28;;
16957;SDS011;8595;52.542;11.974;2023-05-10T10:17:13;6.60;;;5.50;;
16957;SDS011;8595;52.542;11.974;2023-05-10T10:19:40;7.50;;;4.75;;
16957;SDS011;8595;52.542;11.974;2023-05-10T10:22:09;6.55;;;5.95;;
16957;SDS011;8595;52.542;11.974;2023-05-10T10:24:37;5.55;;;5.05;;
16957;SDS011;8595;52.542;11.974;2023-05-10T10:27:09;6.55;;;5.30;;
16957;SDS011;8595;52.542;11.974;2023-05-10T10:29:47;6.72;;;6.03;;
16957;SDS011;8595;52.542;11.974;2023-05-10T10:32:26;6.65;;;6.05;;
16957;SDS011;8595;52.542;11.974;2023-05-10T10:34:59;7.45;;;6.03;;
16957;SDS011;8595;52.542;11.974;2023-05-10T10:40:26;6.53;;;5.35;;
16957;SDS011;8595;52.542;11.974;2023-05-10T10:42:54;7.47;;;5.90;;
16957;SDS011;8595;52.542;11.974;2023-05-10T10:45:22;7.75;;;6.57;;
16957;SDS011;8595;52.542;11.974;2023-05-10T10:47:53;7.53;;;6.60;;
16957;SDS011;8595;52.542;11.974;2023-05-10T10:50:43;7.15;;;5.70;;
16957;SDS011;8595;52.542;11.974;2023-05-10T10:53:10;7.38;;;6.00;;
16957;SDS011;8595;52.542;11.974;2023-05-10T10:55:45;7.07;;;5.68;;
16957;SDS011;8595;52.542;11.974;2023-05-10T10:58:28;11.20;;;6.20;;
16957;SDS011;8595;52.542;11.974;2023-05-10T11:01:08;5.80;;;4.97;;
16957;SDS011;8595;52.542;11.974;2023-05-10T11:03:37;6.07;;;5.47;;
16957;SDS011;8595;52.542;11.974;2023-05-10T11:06:04;6.85;;;6.15;;
16957;SDS011;8595;52.542;11.974;2023-05-10T11:08:31;6.38;;;5.75;;
16957;SDS011;8595;52.542;11.974;2023-05-10T11:11:04;6.60;;;6.00;;
16957;SDS011;8595;52.542;11.974;2023-05-10T11:13:38;5.78;;;5.18;;
16957;SDS011;8595;52.542;11.974;2023-05-10T11:16:15;8.02;;;5.60;;
16957;SDS011;8595;52.542;11.974;2023-05-10T11:18:59;9.15;;;5.57;;
16957;SDS011;8595;52.542;11.974;2023-05-10T11:21:28;7.10;;;5.80;;
16957;SDS011;8595;52.542;11.974;2023-05-10T11:23:56;8.60;;;5.65;;
16957;SDS011;8595;52.542;11.974;2023-05-10T11:26:25;6.18;;;5.57;;
16957;SDS011;8595;52.542;11.974;2023-05-10T11:28:56;9.25;;;5.75;;
16957;SDS011;8595;52.542;11.974;2023-05-10T11:31:25;9.02;;;6.60;;
16957;SDS011;8595;52.542;11.974;2023-05-10T11:33:53;7.10;;;5.88;;
16957;SDS011;8595;52.542;11.974;2023-05-10T11:36:23;7.80;;;5.55;;
16957;SDS011;8595;52.542;11.974;2023-05-10T11:38:53;9.80;;;5.80;;
16957;SDS011;8595;52.542;11.974;2023-05-10T11:41:20;5.72;;;5.22;;
16957;SDS011;8595;52.542;11.974;2023-05-10T11:43:50;6.25;;;4.90;;
16957;SDS011;8595;52.542;11.974;2023-05-10T11:46:19;8.65;;;5.22;;
16957;SDS011;8595;52.542;11.974;2023-05-10T11:48:47;6.05;;;5.18;;
16957;SDS011;8595;52.542;11.974;2023-05-10T11:51:19;9.55;;;5.50;;
16957;SDS011;8595;52.542;11.974;2023-05-10T11:53:47;7.85;;;5.00;;
16957;SDS011;8595;52.542;11.974;2023-05-10T11:56:15;8.23;;;5.53;;
16957;SDS011;8595;52.542;11.974;2023-05-10T11:58:42;5.78;;;5.22;;
16957;SDS011;8595;52.542;11.974;2023-05-10T12:01:10;8.70;;;5.15;;
16957;SDS011;8595;52.542;11.974;2023-05-10T12:03:37;4.63;;;4.22;;
16957;SDS011;8595;52.542;11.974;2023-05-10T12:06:06;5.50;;;4.90;;
16957;SDS011;8595;52.542;11.974;2023-05-10T12:08:33;6.03;;;5.20;;
16957;SDS011;8595;52.542;11.974;2023-05-10T12:11:04;9.13;;;5.38;;
16957;SDS011;8595;52.542;11.974;2023-05-10T12:13:32;7.67;;;5.70;;
16957;SDS011;8595;52.542;11.974;2023-05-10T12:16:14;9.40;;;5.82;;
16957;SDS011;8595;52.542;11.974;2023-05-10T12:18:43;5.30;;;4.70;;
16957;SDS011;8595;52.542;11.974;2023-05-10T12:21:13;11.45;;;6.97;;
16957;SDS011;8595;52.542;11.974;2023-05-10T12:23:41;7.30;;;6.22;;
16957;SDS011;8595;52.542;11.974;2023-05-10T12:26:08;12.30;;;7.70;;
16957;SDS011;8595;52.542;11.974;2023-05-10T12:28:36;14.45;;;7.15;;
16957;SDS011;8595;52.542;11.974;2023-05-10T12:31:03;13.13;;;6.97;;
16957;SDS011;8595;52.542;11.974;2023-05-10T12:33:39;10.38;;;6.82;;
16957;SDS011;8595;52.542;11.974;2023-05-10T12:36:08;9.75;;;6.43;;
16957;SDS011;8595;52.542;11.974;2023-05-10T12:38:35;11.10;;;6.90;;
16957;SDS011;8595;52.542;11.974;2023-05-10T12:41:04;7.50;;;6.72;;
16957;SDS011;8595;52.542;11.974;2023-05-10T12:43:33;8.73;;;7.43;;
16957;SDS011;8595;52.542;11.974;2023-05-10T12:46:07;9.23;;;6.82;;
16957;SDS011;8595;52.542;11.974;2023-05-10T12:48:34;6.95;;;6.22;;
16957;SDS011;8595;52.542;11.974;2023-05-10T12:51:03;10.30;;;7.18;;
16957;SDS011;8595;52.542;11.974;2023-05-10T12:53:33;9.77;;;7.30;;
16957;SDS011;8595;52.542;11.974;2023-05-10T12:56:00;8.60;;;6.80;;
16957;SDS011;8595;52.542;11.974;2023-05-10T12:58:27;10.73;;;7.00;;
16957;SDS011;8595;52.542;11.974;2023-05-10T13:00:53;12.93;;;8.05;;
16957;SDS011;8595;52.542;11.974;2023-05-10T13:03:21;7.90;;;7.10;;
16957;SDS011;8595;52.542;11.974;2023-05-10T13:05:48;15.18;;;8.18;;
16957;SDS011;8595;52.542;11.974;2023-05-10T13:08:16;16.67;;;8.35;;
16957;SDS011;8595;52.542;11.974;2023-05-10T13:10:43;11.07;;;7.68;;
16957;SDS011;8595;52.542;11.974;2023-05-10T13:13:10;13.52;;;9.40;;
16957;SDS011;8595;52.542;11.974;2023-05-10T13:15:37;16.80;;;11.43;;
16957;SDS011;8595;52.542;11.974;2023-05-10T13:18:03;14.98;;;11.00;;
16957;SDS011;8595;52.542;11.974;2023-05-10T13:20:30;15.18;;;9.80;;
16957;SDS011;8595;52.542;11.974;2023-05-10T13:22:57;18.83;;;11.23;;
16957;SDS011;8595;52.542;11.974;2023-05-10T13:25:25;15.43;;;9.48;;
16957;SDS011;8595;52.542;11.974;2023-05-10T13:27:52;13.52;;;8.70;;
16957;SDS011;8595;52.542;11.974;2023-05-10T13:30:19;14.65;;;10.18;;
16957;SDS011;8595;52.542;11.974;2023-05-10T13:32:45;20.05;;;11.63;;
16957;SDS011;8595;52.542;11.974;2023-05-10T13:35:12;22.10;;;13.35;;
16957;SDS011;8595;52.542;11.974;2023-05-10T13:37:39;18.38;;;11.85;;
16957;SDS011;8595;52.542;11.974;2023-05-10T13:40:06;17.10;;;12.82;;
16957;SDS011;8595;52.542;11.974;2023-05-10T13:42:35;14.70;;;11.85;;
16957;SDS011;8595;52.542;11.974;2023-05-10T13:45:02;16.67;;;11.48;;
16957;SDS011;8595;52.542;11.974;2023-05-10T13:47:30;21.58;;;13.38;;
16957;SDS011;8595;52.542;11.974;2023-05-10T13:49:57;13.38;;;12.05;;
16957;SDS011;8595;52.542;11.974;2023-05-10T13:52:23;15.60;;;12.02;;
16957;SDS011;8595;52.542;11.974;2023-05-10T13:54:50;15.18;;;11.55;;
16957;SDS011;8595;52.542;11.974;2023-05-10T13:57:19;12.20;;;10.88;;
16957;SDS011;8595;52.542;11.974;2023-05-10T13:59:48;15.23;;;12.48;;
16957;SDS011;8595;52.542;11.974;2023-05-10T14:02:14;14.73;;;12.73;;
16957;SDS011;8595;52.542;11.974;2023-05-10T14:04:41;15.88;;;12.65;;
16957;SDS011;8595;52.542;11.974;2023-05-10T14:07:08;12.57;;;11.05;;
16957;SDS011;8595;52.542;11.974;2023-05-10T14:09:35;16.63;;;11.82;;
16957;SDS011;8595;52.542;11.974;2023-05-10T14:12:02;18.83;;;13.60;;
16957;SDS011;8595;52.542;11.974;2023-05-10T14:14:31;12.85;;;11.52;;
16957;SDS011;8595;52.542;11.974;2023-05-10T14:16:59;17.30;;;12.40;;
16957;SDS011;8595;52.542;11.974;2023-05-10T14:19:26;18.95;;;12.45;;
16957;SDS011;8595;52.542;11.974;2023-05-10T14:21:55;13.98;;;12.18;;
16957;SDS011;8595;52.542;11.974;2023-05-10T14:24:22;13.68;;;12.18;;
16957;SDS011;8595;52.542;11.974;2023-05-10T14:26:49;17.05;;;12.40;;
16957;SDS011;8595;52.542;11.974;2023-05-10T14:29:18;18.65;;;14.25;;
16957;SDS011;8595;52.542;11.974;2023-05-10T14:31:45;15.73;;;14.10;;
16957;SDS011;8595;52.542;11.974;2023-05-10T14:34:14;16.77;;;13.63;;
16957;SDS011;8595;52.542;11.974;2023-05-10T14:36:41;24.77;;;15.68;;
16957;SDS011;8595;52.542;11.974;2023-05-10T14:39:08;16.75;;;13.13;;
16957;SDS011;8595;52.542;11.974;2023-05-10T14:41:38;14.45;;;13.02;;
16957;SDS011;8595;52.542;11.974;2023-05-10T14:44:08;16.35;;;12.52;;
16957;SDS011;8595;52.542;11.974;2023-05-10T14:46:35;13.98;;;12.45;;
16957;SDS011;8595;52.542;11.974;2023-05-10T14:49:01;12.68;;;11.48;;
16957;SDS011;8595;52.542;11.974;2023-05-10T14:51:29;13.43;;;12.13;;
16957;SDS011;8595;52.542;11.974;2023-05-10T14:53:56;13.30;;;11.93;;
16957;SDS011;8595;52.542;11.974;2023-05-10T14:56:23;12.98;;;11.20;;